createdAt,value
2023-03-20T00:01:24.175Z,7.10
2023-03-20T00:03:51.703Z,7.20
2023-03-20T00:06:21.451Z,7.20
2023-03-20T00:08:50.494Z,7.10
2023-03-20T00:11:29.027Z,7.10
2023-03-20T00:14:13.342Z,7.00
2023-03-20T00:16:43.771Z,7.00
2023-03-20T00:19:17.645Z,7.00
2023-03-20T00:21:47.682Z,7.00
2023-03-20T00:24:17.206Z,6.90
2023-03-20T00:26:46.391Z,6.90
2023-03-20T00:29:22.916Z,6.90
2023-03-20T00:31:50.826Z,6.80
2023-03-20T00:34:20.472Z,6.80
2023-03-20T00:36:52.155Z,6.80
2023-03-20T00:39:19.692Z,6.70
2023-03-20T00:41:52.482Z,6.70
2023-03-20T00:44:26.252Z,6.70
2023-03-20T00:46:59.461Z,6.70
2023-03-20T00:49:35.583Z,6.60
2023-03-20T00:52:12.644Z,6.60
2023-03-20T00:54:39.958Z,6.60
2023-03-20T00:57:14.306Z,6.50
2023-03-20T01:00:24.886Z,6.50
2023-03-20T01:02:54.538Z,6.50
2023-03-20T01:05:26.474Z,6.40
2023-03-20T01:07:55.159Z,6.40
2023-03-20T01:10:27.888Z,6.40
2023-03-20T01:13:00.382Z,6.40
2023-03-20T01:15:32.341Z,6.30
2023-03-20T01:18:02.502Z,6.30
2023-03-20T01:20:30.942Z,6.30
2023-03-20T01:22:58.245Z,6.20
2023-03-20T01:25:25.592Z,6.20
2023-03-20T01:27:55.005Z,6.20
2023-03-20T01:30:25.869Z,6.10
2023-03-20T01:32:54.177Z,6.10
2023-03-20T01:35:25.580Z,6.10
2023-03-20T01:37:54.428Z,6.10
2023-03-20T01:40:29.789Z,6.00
2023-03-20T01:42:57.543Z,6.00
2023-03-20T01:45:30.277Z,6.00
2023-03-20T01:47:59.719Z,6.00
2023-03-20T01:50:33.312Z,6.00
2023-03-20T01:53:15.559Z,5.90
2023-03-20T01:55:51.803Z,5.90
2023-03-20T01:58:28.962Z,5.80
2023-03-20T02:00:56.175Z,5.80
2023-03-20T02:03:23.986Z,5.80
2023-03-20T02:06:10.352Z,5.70
2023-03-20T02:08:56.104Z,5.70
2023-03-20T02:11:26.276Z,5.60
2023-03-20T02:13:56.987Z,5.60
2023-03-20T02:16:26.488Z,5.60
2023-03-20T02:19:29.201Z,5.50
2023-03-20T02:22:23.994Z,5.50
2023-03-20T02:25:04.912Z,5.50
2023-03-20T02:27:44.620Z,5.50
2023-03-20T02:30:28.080Z,5.50
2023-03-20T02:33:29.992Z,5.50
2023-03-20T02:36:28.898Z,5.50
2023-03-20T02:39:02.970Z,5.50
2023-03-20T02:41:40.004Z,5.50
2023-03-20T02:44:07.092Z,5.50
2023-03-20T02:47:08.565Z,5.50
2023-03-20T02:50:00.466Z,5.50
2023-03-20T02:52:49.405Z,5.30
2023-03-20T02:55:21.951Z,5.40
2023-03-20T02:58:15.724Z,5.40
2023-03-20T03:00:51.928Z,5.40
2023-03-20T03:03:27.568Z,5.30
2023-03-20T03:06:03.528Z,5.30
2023-03-20T03:08:35.365Z,5.30
2023-03-20T03:11:08.592Z,5.40
2023-03-20T03:13:46.258Z,5.40
2023-03-20T03:16:18.859Z,5.40
2023-03-20T03:18:49.698Z,5.50
2023-03-20T03:21:18.471Z,5.40
2023-03-20T03:23:49.382Z,5.50
2023-03-20T03:26:31.429Z,5.50
2023-03-20T03:29:11.473Z,5.80
2023-03-20T03:31:38.732Z,5.50
2023-03-20T03:34:08.453Z,5.50
2023-03-20T03:36:51.711Z,5.50
2023-03-20T03:39:31.438Z,5.50
2023-03-20T03:42:01.563Z,5.40
2023-03-20T03:44:54.195Z,5.40
2023-03-20T03:47:46.539Z,5.40
2023-03-20T03:50:24.967Z,5.40
2023-03-20T03:52:56.992Z,5.40
2023-03-20T03:55:27.959Z,5.40
2023-03-20T03:58:10.809Z,5.40
2023-03-20T04:00:50.497Z,5.40
2023-03-20T04:03:20.357Z,5.40
2023-03-20T04:05:49.378Z,5.30
2023-03-20T04:08:16.547Z,5.30
2023-03-20T04:10:43.852Z,5.30
2023-03-20T04:13:11.806Z,5.30
2023-03-20T04:15:39.237Z,5.30
2023-03-20T04:18:11.748Z,5.30
2023-03-20T04:20:39.981Z,5.30
2023-03-20T04:23:07.675Z,5.40
2023-03-20T04:25:36.413Z,5.40
2023-03-20T04:28:03.791Z,5.40
2023-03-20T04:30:48.233Z,5.40
2023-03-20T04:33:22.278Z,5.40
2023-03-20T04:36:07.368Z,5.40
2023-03-20T04:38:34.518Z,5.40
2023-03-20T04:41:02.789Z,5.40
2023-03-20T04:43:30.227Z,5.40
2023-03-20T04:45:59.790Z,5.40
2023-03-20T04:48:28.051Z,5.40
2023-03-20T04:50:55.923Z,5.50
2023-03-20T04:53:29.418Z,5.50
2023-03-20T04:55:56.768Z,5.60
2023-03-20T04:58:23.823Z,5.70
2023-03-20T05:00:51.692Z,5.80
2023-03-20T05:03:18.808Z,5.80
2023-03-20T05:05:46.781Z,5.90
2023-03-20T05:08:13.877Z,6.00
2023-03-20T05:10:42.335Z,6.00
2023-03-20T05:13:29.310Z,6.10
2023-03-20T05:16:17.972Z,6.10
2023-03-20T05:19:11.198Z,6.10
2023-03-20T05:22:11.194Z,6.10
2023-03-20T05:24:41.346Z,6.20
2023-03-20T05:27:17.930Z,6.20
2023-03-20T05:29:45.010Z,6.40
2023-03-20T05:32:36.992Z,6.50
2023-03-20T05:35:21.846Z,6.50
2023-03-20T05:38:08.887Z,6.50
2023-03-20T05:41:02.061Z,6.70
2023-03-20T05:43:52.304Z,6.70
2023-03-20T05:46:34.700Z,6.80
2023-03-20T05:49:14.569Z,6.90
2023-03-20T05:52:13.202Z,6.90
2023-03-20T05:54:52.245Z,7.00
2023-03-20T05:57:39.776Z,7.10
2023-03-20T06:00:25.993Z,7.20
2023-03-20T06:03:13.179Z,7.40
2023-03-20T06:05:57.072Z,7.60
2023-03-20T06:08:24.176Z,7.80
2023-03-20T06:10:51.988Z,7.90
2023-03-20T06:13:19.271Z,8.00
2023-03-20T06:15:47.131Z,8.20
2023-03-20T06:18:17.503Z,8.30
2023-03-20T06:20:44.868Z,8.40
2023-03-20T06:23:12.095Z,8.60
2023-03-20T06:25:39.804Z,8.80
2023-03-20T06:28:08.273Z,8.90
2023-03-20T06:30:35.847Z,9.10
2023-03-20T06:33:10.038Z,9.30
2023-03-20T06:35:50.389Z,9.50
2023-03-20T06:38:17.791Z,10.30
2023-03-20T06:40:45.286Z,10.90
2023-03-20T06:43:16.376Z,11.50
2023-03-20T06:45:50.587Z,11.70
2023-03-20T06:48:22.265Z,11.90
2023-03-20T06:50:50.981Z,11.90
2023-03-20T06:53:19.943Z,11.90
2023-03-20T06:56:02.624Z,11.80
2023-03-20T06:58:32.033Z,11.70
2023-03-20T07:01:00.508Z,11.70
2023-03-20T07:03:28.496Z,11.70
2023-03-20T07:05:58.092Z,11.70
2023-03-20T07:08:25.172Z,11.80
2023-03-20T07:10:52.568Z,11.80
2023-03-20T07:13:20.709Z,11.90
2023-03-20T07:16:03.838Z,12.00
2023-03-20T07:18:37.682Z,12.20
2023-03-20T07:21:06.437Z,12.40
2023-03-20T07:23:34.598Z,12.60
2023-03-20T07:26:03.768Z,12.60
2023-03-20T07:28:31.472Z,12.70
2023-03-20T07:31:32.296Z,12.70
2023-03-20T07:34:13.210Z,12.70
2023-03-20T07:36:42.110Z,12.70
2023-03-20T07:39:11.058Z,12.60
2023-03-20T07:41:42.124Z,12.60
2023-03-20T07:44:11.022Z,12.70
2023-03-20T07:46:51.947Z,12.70
2023-03-20T07:49:19.445Z,12.70
2023-03-20T07:51:48.688Z,12.70
2023-03-20T07:54:16.275Z,12.90
2023-03-20T07:56:44.065Z,13.10
2023-03-20T07:59:13.443Z,13.30
2023-03-20T08:01:41.411Z,13.50
2023-03-20T08:04:08.993Z,13.60
2023-03-20T08:06:39.343Z,13.70
2023-03-20T08:09:07.062Z,13.70
2023-03-20T08:11:34.993Z,13.70
2023-03-20T08:14:02.275Z,13.80
2023-03-20T08:16:29.876Z,13.90
2023-03-20T08:19:01.290Z,14.00
2023-03-20T08:21:30.621Z,14.10
2023-03-20T08:23:58.296Z,14.10
2023-03-20T08:26:26.088Z,14.10
2023-03-20T08:28:53.253Z,14.10
2023-03-20T08:31:21.792Z,14.10
2023-03-20T08:33:48.985Z,14.10
2023-03-20T08:36:22.644Z,14.20
2023-03-20T08:38:50.248Z,14.30
2023-03-20T08:41:18.364Z,14.40
2023-03-20T08:43:48.584Z,14.60
2023-03-20T08:46:16.123Z,14.90
2023-03-20T08:48:43.371Z,15.00
2023-03-20T08:51:11.735Z,15.10
2023-03-20T08:53:38.842Z,14.90
2023-03-20T08:56:10.903Z,15.10
2023-03-20T08:58:38.112Z,15.20
2023-03-20T09:01:07.041Z,15.40
2023-03-20T09:03:36.294Z,15.40
2023-03-20T09:06:09.120Z,15.50
2023-03-20T09:08:36.572Z,15.50
2023-03-20T09:11:04.788Z,15.40
2023-03-20T09:13:31.988Z,15.40
2023-03-20T09:15:59.666Z,15.40
2023-03-20T09:18:27.228Z,15.40
2023-03-20T09:20:56.474Z,15.40
2023-03-20T09:23:23.965Z,15.40
2023-03-20T09:25:51.594Z,15.40
2023-03-20T09:28:18.749Z,15.50
2023-03-20T09:30:46.212Z,15.60
2023-03-20T09:33:14.942Z,15.70
2023-03-20T09:35:43.792Z,15.80
2023-03-20T09:38:12.577Z,15.90
2023-03-20T09:41:01.720Z,16.00
2023-03-20T09:44:15.463Z,16.20
2023-03-20T09:47:19.924Z,16.40
2023-03-20T09:50:22.442Z,16.30
2023-03-20T09:52:57.731Z,16.20
2023-03-20T09:55:33.662Z,16.10
2023-03-20T09:58:10.284Z,16.00
2023-03-20T10:00:38.419Z,15.90
2023-03-20T10:03:18.230Z,15.80
2023-03-20T10:05:47.147Z,15.70
2023-03-20T10:08:19.244Z,15.70
2023-03-20T10:10:57.819Z,15.80
2023-03-20T10:13:37.576Z,15.90
2023-03-20T10:16:22.712Z,16.00
2023-03-20T10:19:08.158Z,15.90
2023-03-20T10:21:45.726Z,15.80
2023-03-20T10:24:34.186Z,15.90
2023-03-20T10:27:18.090Z,15.80
2023-03-20T10:30:03.628Z,15.70
2023-03-20T10:32:38.858Z,15.80
2023-03-20T10:35:13.615Z,15.80
2023-03-20T10:37:46.469Z,15.90
2023-03-20T10:40:41.670Z,15.90
2023-03-20T10:43:22.150Z,15.90
2023-03-20T10:45:59.012Z,15.80
2023-03-20T10:48:34.720Z,15.80
2023-03-20T10:51:04.190Z,15.90
2023-03-20T10:54:02.588Z,16.00
2023-03-20T10:56:45.752Z,16.10
2023-03-20T10:59:34.250Z,16.10
2023-03-20T11:02:01.663Z,16.20
2023-03-20T11:04:31.502Z,16.20
2023-03-20T11:06:59.424Z,16.00
2023-03-20T11:09:29.778Z,16.10
2023-03-20T11:12:00.085Z,16.20
2023-03-20T11:14:34.127Z,16.20
2023-03-20T11:17:03.955Z,16.40
2023-03-20T11:19:39.423Z,16.50
2023-03-20T11:22:32.779Z,16.60
2023-03-20T11:25:02.586Z,16.90
2023-03-20T11:27:34.928Z,16.70
2023-03-20T11:30:06.084Z,16.70
2023-03-20T11:32:36.150Z,16.30
2023-03-20T11:35:22.865Z,16.20
2023-03-20T11:37:54.806Z,15.90
2023-03-20T11:40:23.455Z,15.60
2023-03-20T11:43:10.585Z,15.30
2023-03-20T11:45:40.676Z,15.20
2023-03-20T11:48:25.616Z,14.90
2023-03-20T11:51:06.630Z,14.60
2023-03-20T11:53:39.624Z,14.50
2023-03-20T11:56:28.977Z,14.30
2023-03-20T11:59:06.931Z,14.20
2023-03-20T12:01:55.775Z,14.10
2023-03-20T12:04:33.384Z,14.10
2023-03-20T12:07:27.720Z,14.20
2023-03-20T12:09:58.200Z,14.30
2023-03-20T12:12:31.838Z,14.30
2023-03-20T12:15:12.962Z,14.50
2023-03-20T12:18:04.334Z,14.60
2023-03-20T12:20:59.859Z,14.80
2023-03-20T12:23:46.362Z,14.90
2023-03-20T12:38:33.078Z,15.60
2023-03-20T12:41:20.762Z,14.60
2023-03-20T12:44:09.615Z,14.50
2023-03-20T12:46:40.130Z,14.60
2023-03-20T12:49:16.446Z,14.60
2023-03-20T12:52:15.606Z,14.60
2023-03-20T12:55:06.606Z,14.60
2023-03-20T12:57:53.225Z,14.80
2023-03-20T13:00:38.050Z,14.90
2023-03-20T13:03:17.121Z,15.00
2023-03-20T13:05:56.548Z,15.10
2023-03-20T13:08:49.720Z,15.30
2023-03-20T13:11:29.443Z,15.40
2023-03-20T13:14:17.431Z,15.50
2023-03-20T13:17:09.255Z,15.60
2023-03-20T13:20:23.798Z,15.70
2023-03-20T13:23:24.154Z,15.70
2023-03-20T13:26:07.784Z,15.60
2023-03-20T13:28:41.080Z,15.60
2023-03-20T13:31:27.924Z,15.50
2023-03-20T13:34:35.770Z,15.50
2023-03-20T13:37:23.901Z,15.50
2023-03-20T13:40:06.729Z,15.60
2023-03-20T13:43:18.685Z,15.70
2023-03-20T13:45:46.383Z,15.80
2023-03-20T13:48:41.921Z,15.80
2023-03-20T13:51:30.560Z,15.80
2023-03-20T13:54:00.758Z,15.70
2023-03-20T13:56:33.348Z,15.70
2023-03-20T13:59:37.590Z,15.60
2023-03-20T14:02:07.414Z,15.50
2023-03-20T14:04:40.483Z,15.30
2023-03-20T14:07:29.215Z,15.30
2023-03-20T14:09:59.727Z,15.40
2023-03-20T14:12:32.069Z,15.50
2023-03-20T14:15:01.255Z,15.50
2023-03-20T14:17:30.847Z,15.40
2023-03-20T14:20:10.233Z,15.30
2023-03-20T14:22:42.940Z,15.20
2023-03-20T14:25:21.807Z,15.00
2023-03-20T14:27:59.255Z,14.80
2023-03-20T14:30:30.680Z,14.70
2023-03-20T14:33:20.717Z,14.70
2023-03-20T14:36:17.419Z,14.70
2023-03-20T14:39:12.344Z,14.70
2023-03-20T14:42:16.111Z,14.90
2023-03-20T14:45:10.236Z,15.00
2023-03-20T14:47:40.760Z,15.00
2023-03-20T14:50:26.697Z,14.90
2023-03-20T14:53:27.194Z,14.70
2023-03-20T14:56:07.055Z,14.50
2023-03-20T14:58:49.126Z,14.30
2023-03-20T15:01:20.823Z,14.30
2023-03-20T15:03:57.727Z,14.20
2023-03-20T15:06:27.580Z,14.30
2023-03-20T15:09:00.131Z,14.50
2023-03-20T15:11:27.799Z,14.60
2023-03-20T15:13:58.074Z,14.70
2023-03-20T15:16:34.300Z,14.70
2023-03-20T15:19:04.383Z,14.60
2023-03-20T15:21:34.380Z,14.50
2023-03-20T15:24:04.593Z,14.40
2023-03-20T15:26:35.011Z,14.30
2023-03-20T15:29:12.650Z,14.20
2023-03-20T15:31:40.704Z,14.10
2023-03-20T15:34:23.371Z,14.00
2023-03-20T15:36:51.702Z,13.90
2023-03-20T15:39:24.402Z,13.80
2023-03-20T15:41:58.264Z,13.70
2023-03-20T15:44:27.799Z,13.60
2023-03-20T15:46:55.243Z,13.60
2023-03-20T15:49:23.913Z,13.50
2023-03-20T15:51:52.838Z,13.40
2023-03-20T15:54:21.438Z,13.40
2023-03-20T15:56:51.975Z,13.30
2023-03-20T15:59:25.808Z,13.30
2023-03-20T16:01:56.918Z,13.20
2023-03-20T16:04:25.610Z,13.20
2023-03-20T16:06:58.324Z,13.10
2023-03-20T16:09:26.898Z,13.10
2023-03-20T16:12:02.774Z,13.10
2023-03-20T16:14:33.116Z,13.10
2023-03-20T16:17:02.440Z,13.10
2023-03-20T16:19:30.031Z,13.10
2023-03-20T16:22:01.028Z,13.00
2023-03-20T16:24:36.720Z,13.00
2023-03-20T16:27:09.185Z,12.90
2023-03-20T16:29:37.549Z,12.80
2023-03-20T16:32:20.741Z,12.70
2023-03-20T16:34:51.387Z,12.60
2023-03-20T16:37:29.229Z,12.50
2023-03-20T16:40:32.594Z,12.40
2023-03-20T16:43:20.189Z,12.30
2023-03-20T16:46:03.686Z,12.20
2023-03-20T16:48:33.443Z,12.10
2023-03-20T16:51:17.161Z,12.10
2023-03-20T16:53:54.740Z,12.10
2023-03-20T16:56:29.382Z,12.00
2023-03-20T16:58:57.214Z,12.00
2023-03-20T17:01:28.334Z,12.00
2023-03-20T17:03:58.134Z,12.00
2023-03-20T17:06:29.437Z,11.90
2023-03-20T17:09:18.930Z,12.00
2023-03-20T17:11:50.773Z,12.00
2023-03-20T17:14:17.976Z,12.00
2023-03-20T17:16:45.506Z,12.00
2023-03-20T17:19:20.560Z,12.00
2023-03-20T17:21:48.312Z,11.80
2023-03-20T17:24:18.839Z,11.60
2023-03-20T17:26:57.704Z,11.50
2023-03-20T17:29:26.205Z,11.40
2023-03-20T17:31:53.766Z,11.30
2023-03-20T17:34:22.274Z,11.30
2023-03-20T17:36:49.848Z,11.30
2023-03-20T17:39:21.634Z,11.30
2023-03-20T17:41:51.448Z,11.30
2023-03-20T17:44:18.636Z,11.20
2023-03-20T17:46:57.894Z,11.30
2023-03-20T17:49:32.273Z,11.20
2023-03-20T17:51:59.570Z,11.20
2023-03-20T17:54:28.600Z,11.20
2023-03-20T17:56:56.391Z,11.20
2023-03-20T17:59:24.908Z,11.10
2023-03-20T18:01:52.285Z,11.10
2023-03-20T18:04:19.816Z,11.00
2023-03-20T18:06:49.021Z,11.10
2023-03-20T18:09:16.644Z,11.00
2023-03-20T18:11:44.024Z,11.00
2023-03-20T18:14:12.275Z,11.00
2023-03-20T18:16:39.712Z,10.90
2023-03-20T18:19:06.881Z,10.90
2023-03-20T18:21:34.335Z,10.70
2023-03-20T18:24:01.764Z,10.70
2023-03-20T18:26:29.144Z,10.60
2023-03-20T18:28:56.566Z,10.60
2023-03-20T18:31:24.090Z,10.50
2023-03-20T18:33:52.980Z,10.50
2023-03-20T18:36:22.877Z,10.40
2023-03-20T18:38:51.644Z,10.40
2023-03-20T18:41:19.427Z,10.30
2023-03-20T18:43:46.749Z,10.30
2023-03-20T18:46:19.444Z,10.30
2023-03-20T18:48:47.644Z,10.30
2023-03-20T18:51:19.107Z,10.30
2023-03-20T18:53:49.514Z,10.20
2023-03-20T18:56:19.879Z,10.30
2023-03-20T18:58:48.555Z,10.20
2023-03-20T19:01:17.728Z,10.30
2023-03-20T19:03:46.373Z,10.20
2023-03-20T19:06:19.718Z,10.20
2023-03-20T19:08:47.745Z,10.20
2023-03-20T19:11:19.642Z,10.20
2023-03-20T19:13:51.228Z,10.20
2023-03-20T19:16:26.375Z,10.20
2023-03-20T19:18:55.056Z,10.10
2023-03-20T19:21:29.120Z,10.10
2023-03-20T19:23:59.177Z,10.10
2023-03-20T19:26:31.198Z,10.10
2023-03-20T19:29:01.018Z,10.10
2023-03-20T19:31:29.063Z,10.10
2023-03-20T19:33:57.410Z,10.00
2023-03-20T19:36:36.474Z,10.00
2023-03-20T19:39:06.412Z,10.00
2023-03-20T19:41:34.240Z,10.00
2023-03-20T19:44:01.792Z,10.00
2023-03-20T19:46:39.581Z,10.00
2023-03-20T19:49:18.992Z,10.00
2023-03-20T19:51:46.929Z,10.00
2023-03-20T19:54:14.328Z,10.00
2023-03-20T19:56:43.888Z,9.90
2023-03-20T19:59:11.407Z,9.90
2023-03-20T20:01:41.177Z,9.90
2023-03-20T20:04:08.262Z,9.80
2023-03-20T20:06:35.847Z,9.90
2023-03-20T20:09:08.655Z,9.90
2023-03-20T20:11:38.126Z,9.90
2023-03-20T20:14:08.471Z,9.90
2023-03-20T20:16:43.123Z,9.90
2023-03-20T20:19:10.864Z,9.80
2023-03-20T20:24:31.028Z,9.90
2023-03-20T20:27:16.236Z,9.90
2023-03-20T20:29:51.753Z,9.80
2023-03-20T20:32:21.853Z,9.80
2023-03-20T20:40:31.465Z,9.70
2023-03-20T20:43:01.595Z,9.70
2023-03-20T20:45:34.655Z,9.70
2023-03-20T20:48:04.825Z,9.70
2023-03-20T20:50:33.298Z,9.70
2023-03-20T20:53:00.834Z,9.70
2023-03-20T20:55:29.073Z,9.70
2023-03-20T20:57:56.429Z,9.80
2023-03-20T21:00:37.186Z,9.80
2023-03-20T21:03:08.892Z,9.80
2023-03-20T21:05:37.868Z,9.80
2023-03-20T21:08:06.945Z,9.80
2023-03-20T21:10:34.077Z,9.80
2023-03-20T21:13:01.601Z,9.80
2023-03-20T21:15:28.710Z,9.80
2023-03-20T21:18:03.070Z,9.80
2023-03-20T21:20:31.154Z,9.80
2023-03-20T21:22:58.830Z,9.80
2023-03-20T21:25:39.117Z,9.80
2023-03-20T21:28:10.567Z,9.70
2023-03-20T21:30:51.121Z,9.70
2023-03-20T21:33:30.727Z,9.70
2023-03-20T21:35:57.999Z,9.70
2023-03-20T21:41:13.516Z,9.60
2023-03-20T21:43:41.530Z,9.60
2023-03-20T21:57:55.739Z,9.40
2023-03-20T22:02:58.264Z,9.40
2023-03-20T22:06:02.360Z,9.40
2023-03-20T22:09:10.524Z,9.50
2023-03-20T22:11:50.392Z,9.40
2023-03-20T22:20:27.529Z,9.40
2023-03-20T22:28:33.256Z,9.40
2023-03-20T22:37:11.172Z,9.40
2023-03-20T22:39:46.243Z,9.40
2023-03-20T22:45:01.310Z,9.40
2023-03-20T22:47:25.720Z,9.80
2023-03-20T22:49:53.178Z,9.40
2023-03-20T22:52:31.796Z,9.30
2023-03-20T22:55:05.805Z,9.30
2023-03-20T22:57:42.292Z,9.20
2023-03-20T23:00:16.462Z,9.10
2023-03-20T23:02:44.079Z,9.10
2023-03-20T23:05:11.992Z,9.00
2023-03-20T23:07:39.106Z,8.90
2023-03-20T23:10:07.415Z,8.90
2023-03-20T23:12:34.687Z,8.80
2023-03-20T23:15:03.915Z,8.80
2023-03-20T23:17:31.043Z,8.80
2023-03-20T23:20:08.919Z,8.80
2023-03-20T23:22:38.928Z,8.70
2023-03-20T23:25:16.385Z,8.70
2023-03-20T23:27:47.988Z,8.70
2023-03-20T23:30:15.774Z,8.70
2023-03-20T23:32:42.810Z,8.70
2023-03-20T23:35:10.394Z,8.70
2023-03-20T23:37:37.595Z,8.70
2023-03-20T23:40:06.267Z,8.60
2023-03-20T23:42:33.247Z,8.50
2023-03-20T23:45:13.222Z,8.50
2023-03-20T23:47:46.616Z,8.50
2023-03-20T23:50:26.506Z,8.40
2023-03-20T23:53:06.487Z,8.40
2023-03-20T23:55:41.830Z,8.40
2023-03-20T23:58:09.124Z,8.40
